Time;durP1;ratioP1;P1;durP2;ratioP2;P2;SDS_P1;SDS_P2;PMS_P1;PMS_P2;Temp;Humidity;BMP_temperature;BMP_pressure;BME280_temperature;BME280_humidity;BME280_pressure;Samples;Min_cycle;Max_cycle;Signal;HPM_P1;HPM_P2
2023/04/29 00:01:22;;;;;;;8.32;5.60;;;11.40;49.60;;;;;;5070438;27;116178;-84
2023/04/29 00:03:50;;;;;;;9.02;4.82;;;11.40;49.90;;;;;;5011631;27;114611;-85
2023/04/29 00:06:17;;;;;;;8.27;4.55;;;11.30;50.00;;;;;;5045870;27;114590;-84
2023/04/29 00:08:44;;;;;;;10.07;5.20;;;11.30;50.20;;;;;;5049536;27;114660;-84
2023/04/29 00:11:11;;;;;;;9.90;4.93;;;11.30;50.10;;;;;;5047643;27;114273;-84
2023/04/29 00:13:39;;;;;;;7.05;4.30;;;11.30;50.10;;;;;;5064559;27;114314;-84
2023/04/29 00:16:09;;;;;;;6.93;4.90;;;11.20;50.20;;;;;;5063370;27;114945;-84
2023/04/29 00:18:39;;;;;;;7.13;4.93;;;11.30;50.20;;;;;;5029788;27;115172;-85
2023/04/29 00:21:06;;;;;;;7.88;5.00;;;11.20;50.30;;;;;;5031128;27;114670;-84
2023/04/29 00:23:33;;;;;;;8.20;5.15;;;11.20;50.40;;;;;;5064353;27;114471;-84
2023/04/29 00:26:00;;;;;;;8.82;5.57;;;11.20;50.60;;;;;;5045610;27;114769;-84
2023/04/29 00:28:28;;;;;;;7.55;5.40;;;11.20;50.50;;;;;;5062881;27;114906;-84
2023/04/29 00:30:56;;;;;;;7.57;4.72;;;11.20;50.80;;;;;;5063630;27;114600;-84
2023/04/29 00:33:24;;;;;;;9.18;5.40;;;11.20;51.00;;;;;;5047104;27;114576;-83
2023/04/29 00:35:51;;;;;;;7.82;4.93;;;11.10;51.40;;;;;;5043628;27;117138;-83
2023/04/29 00:38:20;;;;;;;8.02;5.28;;;11.00;51.60;;;;;;5063230;27;118014;-83
2023/04/29 00:40:47;;;;;;;8.25;5.50;;;11.00;51.70;;;;;;5028757;27;114309;-83
2023/04/29 00:43:14;;;;;;;8.02;5.30;;;11.00;51.80;;;;;;5046896;27;116499;-83
2023/04/29 00:45:42;;;;;;;7.45;5.00;;;10.90;51.80;;;;;;5044388;27;115199;-83
2023/04/29 00:48:09;;;;;;;9.63;6.00;;;10.90;52.10;;;;;;5045985;27;114748;-83
2023/04/29 00:50:36;;;;;;;8.65;5.88;;;10.90;52.20;;;;;;5045211;27;116763;-84
2023/04/29 00:53:03;;;;;;;7.85;5.57;;;10.90;52.90;;;;;;5028301;27;116337;-83
2023/04/29 00:55:31;;;;;;;10.20;5.95;;;10.80;53.30;;;;;;5043461;27;114796;-83
2023/04/29 00:58:01;;;;;;;8.32;5.72;;;10.80;53.90;;;;;;5044451;27;114587;-84
2023/04/29 01:00:28;;;;;;;10.35;5.70;;;10.70;53.90;;;;;;5063386;27;114499;-82
2023/04/29 01:02:57;;;;;;;10.40;5.70;;;10.70;54.10;;;;;;5011201;27;114343;-83
2023/04/29 01:05:24;;;;;;;9.70;6.05;;;10.70;54.40;;;;;;5044644;27;114998;-84
2023/04/29 01:08:01;;;;;;;7.10;5.90;;;10.70;54.50;;;;;;5027759;27;114549;-84
2023/04/29 01:10:40;;;;;;;11.40;6.15;;;10.80;54.80;;;;;;5030601;27;114575;-85
2023/04/29 01:13:28;;;;;;;7.53;5.68;;;10.80;54.90;;;;;;5029178;27;119321;-85
2023/04/29 01:16:03;;;;;;;8.02;5.65;;;10.80;55.30;;;;;;5029861;27;114560;-84
2023/04/29 01:18:33;;;;;;;;;;;10.70;55.50;;;;;;5044259;27;114548;-85
2023/04/29 01:21:01;;;;;;;10.32;5.55;;;10.70;54.20;;;;;;5044006;27;115418;-84
2023/04/29 01:23:28;;;;;;;11.63;6.60;;;10.50;55.60;;;;;;5080912;27;114464;-83
2023/04/29 01:25:56;;;;;;;7.40;5.32;;;10.60;55.60;;;;;;5047421;27;117439;-83
2023/04/29 01:28:57;;;;;;;10.13;5.88;;;10.60;55.50;;;;;;5081844;27;114836;-83
2023/04/29 01:31:37;;;;;;;8.07;5.80;;;10.60;55.60;;;;;;5049252;27;114316;-82
2023/04/29 01:34:29;;;;;;;7.40;5.35;;;10.70;55.50;;;;;;5065035;27;114628;-83
2023/04/29 01:37:13;;;;;;;11.32;6.20;;;10.60;55.30;;;;;;5067123;27;116049;-84
2023/04/29 01:39:55;;;;;;;10.23;6.10;;;10.50;55.50;;;;;;5049854;27;114708;-85
2023/04/29 01:42:44;;;;;;;7.85;5.43;;;10.50;55.50;;;;;;5049342;27;114308;-83
2023/04/29 01:45:17;;;;;;;7.40;5.32;;;10.50;55.50;;;;;;5068896;27;114564;-83
2023/04/29 01:47:45;;;;;;;8.98;6.05;;;10.50;55.40;;;;;;5047987;27;117592;-83
2023/04/29 01:50:13;;;;;;;8.57;6.28;;;10.40;55.50;;;;;;5065221;27;114842;-83
2023/04/29 01:52:41;;;;;;;8.75;6.18;;;10.50;55.60;;;;;;5065344;27;114543;-82
2023/04/29 01:55:09;;;;;;;9.25;5.72;;;10.50;55.40;;;;;;5049265;27;114281;-83
2023/04/29 01:57:51;;;;;;;6.47;5.25;;;10.50;55.30;;;;;;5081181;27;117203;-84
2023/04/29 02:00:34;;;;;;;8.65;5.43;;;10.60;55.20;;;;;;5081928;27;115502;-83
2023/04/29 02:03:04;;;;;;;8.82;6.30;;;10.60;55.30;;;;;;5048671;27;114592;-83
2023/04/29 02:05:38;;;;;;;9.13;6.18;;;10.60;55.30;;;;;;5067142;27;114452;-83
2023/04/29 02:08:06;;;;;;;9.25;6.28;;;10.60;55.30;;;;;;5047331;27;115779;-84
2023/04/29 02:10:38;;;;;;;7.38;5.63;;;10.60;55.30;;;;;;5065738;27;114701;-84
2023/04/29 02:13:23;;;;;;;8.25;5.93;;;10.60;55.30;;;;;;5067226;27;114343;-85
2023/04/29 02:15:50;;;;;;;8.23;6.07;;;10.60;55.60;;;;;;5082551;27;114549;-84
2023/04/29 02:18:18;;;;;;;10.93;6.55;;;10.60;55.70;;;;;;5081785;27;115354;-84
2023/04/29 02:20:49;;;;;;;8.70;6.00;;;10.60;55.60;;;;;;5081481;27;114546;-84
2023/04/29 02:23:16;;;;;;;7.53;5.25;;;10.60;55.70;;;;;;5082307;27;114445;-83
2023/04/29 02:25:43;;;;;;;9.75;6.07;;;10.60;55.70;;;;;;5081706;27;114375;-84
2023/04/29 02:28:11;;;;;;;8.77;6.22;;;10.60;55.70;;;;;;5082196;27;117112;-84
2023/04/29 02:30:42;;;;;;;7.80;5.75;;;10.60;56.00;;;;;;5065421;27;114670;-83
2023/04/29 02:33:09;;;;;;;9.50;6.47;;;10.60;55.60;;;;;;5066267;27;114232;-84
2023/04/29 02:35:36;;;;;;;10.10;5.90;;;10.60;56.10;;;;;;5084420;27;118628;-83
2023/04/29 02:38:03;;;;;;;8.73;5.70;;;10.50;55.90;;;;;;5064629;27;114926;-83
2023/04/29 02:40:31;;;;;;;8.30;5.82;;;10.50;56.10;;;;;;5064362;27;117487;-83
2023/04/29 02:43:01;;;;;;;8.57;5.82;;;10.50;56.00;;;;;;5083513;27;118429;-83
2023/04/29 02:45:29;;;;;;;7.68;5.63;;;10.50;56.10;;;;;;5083044;27;114366;-83
2023/04/29 02:47:57;;;;;;;9.70;6.00;;;10.60;55.90;;;;;;5048375;27;114986;-84
2023/04/29 02:50:25;;;;;;;9.05;6.10;;;10.60;55.90;;;;;;5047347;27;115188;-88
2023/04/29 02:52:52;;;;;;;10.10;6.10;;;10.70;55.80;;;;;;5081931;27;114591;-84
2023/04/29 02:55:19;;;;;;;8.68;6.13;;;10.70;55.90;;;;;;5082724;27;114118;-84
2023/04/29 02:57:46;;;;;;;10.68;6.10;;;10.60;56.10;;;;;;5081762;27;115119;-82
2023/04/29 03:00:15;;;;;;;10.32;6.40;;;10.60;56.10;;;;;;5064996;27;114532;-83
2023/04/29 03:02:42;;;;;;;9.30;6.13;;;10.60;56.10;;;;;;5081864;27;114495;-83
2023/04/29 03:05:09;;;;;;;10.90;5.85;;;10.60;56.10;;;;;;5082284;27;114214;-83
2023/04/29 03:07:37;;;;;;;10.85;6.15;;;10.70;56.10;;;;;;5064119;27;114842;-84
2023/04/29 03:10:05;;;;;;;11.55;6.38;;;10.60;56.20;;;;;;5064502;27;117929;-84
2023/04/29 03:12:35;;;;;;;8.75;6.15;;;10.70;56.20;;;;;;5048835;27;114264;-84
2023/04/29 03:15:02;;;;;;;8.30;5.75;;;10.70;56.00;;;;;;5061521;27;114193;-83
2023/04/29 03:17:29;;;;;;;9.90;6.18;;;10.70;56.00;;;;;;5044332;27;114838;-84
2023/04/29 03:19:59;;;;;;;9.65;6.65;;;10.70;56.00;;;;;;5048644;27;114684;-84
2023/04/29 03:22:27;;;;;;;11.23;6.43;;;10.70;56.00;;;;;;5029040;27;114388;-84
2023/04/29 03:24:54;;;;;;;9.75;6.05;;;10.70;56.10;;;;;;5035285;27;114513;-84
2023/04/29 03:27:22;;;;;;;9.02;6.30;;;10.70;56.10;;;;;;5029799;27;114982;-84
2023/04/29 03:29:49;;;;;;;9.88;6.97;;;10.70;56.10;;;;;;5045662;27;114802;-85
2023/04/29 03:32:16;;;;;;;9.63;6.63;;;10.70;56.20;;;;;;5065459;27;114785;-84
2023/04/29 03:34:44;;;;;;;10.40;5.97;;;10.70;56.40;;;;;;5046435;27;114197;-84
2023/04/29 03:37:46;;;;;;;10.73;7.13;;;10.60;56.50;;;;;;4985067;28;118684;-84
2023/04/29 03:40:28;;;;;;;10.68;6.45;;;10.60;56.50;;;;;;5039771;27;119860;-85
2023/04/29 03:42:55;;;;;;;11.15;6.85;;;10.60;56.60;;;;;;5029163;27;114488;-85
2023/04/29 03:45:22;;;;;;;11.90;6.47;;;10.60;56.60;;;;;;5054361;27;114309;-85
2023/04/29 03:47:49;;;;;;;9.20;6.35;;;10.70;56.40;;;;;;5064958;27;118656;-86
2023/04/29 03:50:16;;;;;;;11.93;6.40;;;10.60;56.60;;;;;;5045063;27;116993;-86
2023/04/29 03:52:44;;;;;;;10.43;6.22;;;10.70;56.60;;;;;;5036944;27;116240;-85
2023/04/29 03:55:14;;;;;;;9.90;6.45;;;10.60;56.50;;;;;;5029646;27;114235;-84
2023/04/29 03:57:43;;;;;;;11.38;6.40;;;10.70;56.50;;;;;;5024220;27;115064;-83
2023/04/29 04:00:11;;;;;;;10.98;7.47;;;10.70;56.50;;;;;;5028451;27;114542;-84
2023/04/29 04:02:49;;;;;;;10.70;6.93;;;10.70;56.70;;;;;;5045887;27;114202;-84
2023/04/29 04:05:19;;;;;;;8.25;6.05;;;10.70;56.90;;;;;;5048789;27;114341;-85
2023/04/29 04:07:52;;;;;;;9.48;6.72;;;10.60;56.70;;;;;;5067094;27;115288;-85
2023/04/29 04:10:45;;;;;;;11.80;6.97;;;10.60;56.80;;;;;;5059956;27;114691;-84
2023/04/29 04:13:26;;;;;;;7.88;6.18;;;10.70;56.70;;;;;;5084535;27;114402;-85
2023/04/29 04:15:54;;;;;;;9.38;5.95;;;10.70;56.90;;;;;;5049997;27;117496;-85
2023/04/29 04:18:21;;;;;;;10.20;6.63;;;10.70;56.90;;;;;;5084058;27;116198;-84
2023/04/29 04:20:51;;;;;;;9.88;6.75;;;10.70;56.80;;;;;;5082997;27;115973;-84
2023/04/29 04:23:18;;;;;;;8.68;6.50;;;10.70;56.70;;;;;;5049617;27;114230;-84
2023/04/29 04:25:48;;;;;;;9.52;5.88;;;10.80;56.70;;;;;;5050434;27;114827;-84
2023/04/29 04:28:35;;;;;;;10.77;6.60;;;10.80;56.70;;;;;;5068744;27;115078;-85
2023/04/29 04:31:07;;;;;;;10.57;6.53;;;10.90;56.50;;;;;;5083167;27;115113;-84
2023/04/29 04:33:35;;;;;;;10.73;6.57;;;10.90;56.50;;;;;;5050301;27;114561;-83
2023/04/29 04:36:02;;;;;;;10.73;6.82;;;10.90;56.40;;;;;;5084779;27;114376;-84
2023/04/29 04:38:31;;;;;;;10.55;7.05;;;10.80;56.50;;;;;;5065293;27;115493;-84
2023/04/29 04:41:00;;;;;;;8.85;6.07;;;10.90;56.50;;;;;;5080041;27;117085;-83
2023/04/29 04:43:36;;;;;;;8.90;6.28;;;10.90;56.50;;;;;;5068251;27;114660;-85
2023/04/29 04:46:11;;;;;;;12.90;7.20;;;10.90;56.60;;;;;;5084083;27;114634;-84
2023/04/29 04:48:42;;;;;;;10.55;6.63;;;10.90;56.70;;;;;;5066727;27;114923;-83
2023/04/29 04:51:13;;;;;;;11.63;7.10;;;10.90;56.60;;;;;;5066293;27;116319;-84
2023/04/29 04:53:42;;;;;;;9.45;6.82;;;10.90;56.50;;;;;;5049642;27;114494;-84
2023/04/29 04:56:18;;;;;;;11.63;7.65;;;11.00;56.60;;;;;;5083588;27;114398;-84
2023/04/29 04:58:45;;;;;;;12.85;7.07;;;11.00;56.60;;;;;;5083337;27;117020;-85
2023/04/29 05:01:13;;;;;;;10.68;7.43;;;11.20;56.40;;;;;;5067439;27;114729;-84
2023/04/29 05:03:41;;;;;;;15.35;7.63;;;11.20;56.30;;;;;;5085931;27;114342;-85
2023/04/29 05:06:09;;;;;;;14.07;8.00;;;11.20;56.30;;;;;;5066289;27;114890;-84
2023/04/29 05:08:39;;;;;;;11.57;7.45;;;11.20;56.20;;;;;;5047484;27;117040;-85
2023/04/29 05:11:18;;;;;;;12.27;7.30;;;11.30;56.10;;;;;;5083254;27;114663;-85
2023/04/29 05:13:57;;;;;;;11.32;7.40;;;11.40;56.00;;;;;;5045312;27;114655;-84
2023/04/29 05:16:26;;;;;;;12.43;7.60;;;11.50;56.00;;;;;;5028019;27;120066;-84
2023/04/29 05:18:53;;;;;;;10.48;7.30;;;11.40;55.90;;;;;;5065935;27;115632;-86
2023/04/29 05:21:24;;;;;;;9.02;7.07;;;11.40;55.80;;;;;;5065458;27;115338;-84
2023/04/29 05:23:51;;;;;;;11.07;7.82;;;11.40;55.90;;;;;;5066255;27;114251;-85
2023/04/29 05:26:19;;;;;;;11.18;7.40;;;11.40;55.90;;;;;;5065997;27;114296;-85
2023/04/29 05:28:46;;;;;;;16.73;9.98;;;11.40;55.90;;;;;;5043743;27;116751;-86
2023/04/29 05:31:14;;;;;;;11.32;8.30;;;11.40;55.90;;;;;;5044877;27;114560;-87
2023/04/29 05:33:41;;;;;;;17.08;9.02;;;11.40;56.00;;;;;;5046543;27;115401;-85
2023/04/29 05:36:08;;;;;;;14.07;8.57;;;11.40;56.00;;;;;;5026489;27;114369;-85
2023/04/29 05:38:37;;;;;;;13.52;8.65;;;11.50;56.00;;;;;;5033170;27;114822;-85
2023/04/29 05:41:08;;;;;;;17.38;10.05;;;11.40;56.10;;;;;;5044479;27;117018;-85
2023/04/29 05:43:41;;;;;;;18.77;9.35;;;11.40;56.10;;;;;;5044862;27;114341;-84
2023/04/29 05:46:09;;;;;;;17.88;9.45;;;11.40;56.10;;;;;;5045415;27;114523;-85
2023/04/29 05:48:38;;;;;;;14.35;7.85;;;11.40;56.20;;;;;;5061783;27;115190;-85
2023/04/29 05:51:06;;;;;;;14.32;7.93;;;11.50;56.30;;;;;;5041352;27;117518;-86
2023/04/29 05:53:35;;;;;;;13.07;8.13;;;11.40;56.20;;;;;;5062122;27;114710;-86
2023/04/29 05:56:07;;;;;;;11.43;7.47;;;11.40;56.20;;;;;;5044470;27;114483;-85
2023/04/29 05:58:35;;;;;;;12.90;7.28;;;11.40;56.30;;;;;;5063789;27;115563;-85
2023/04/29 06:01:03;;;;;;;14.20;7.95;;;11.40;56.20;;;;;;5062335;27;114552;-85
2023/04/29 06:03:31;;;;;;;13.40;7.88;;;11.50;56.20;;;;;;5028827;27;114731;-85
2023/04/29 06:06:17;;;;;;;10.10;7.50;;;11.60;56.00;;;;;;5063120;27;114205;-85
2023/04/29 06:09:03;;;;;;;11.98;7.72;;;11.70;55.80;;;;;;5047083;27;114935;-85
2023/04/29 06:11:40;;;;;;;10.25;7.32;;;11.70;55.80;;;;;;5042562;27;114583;-85
2023/04/29 06:14:07;;;;;;;12.38;7.95;;;11.60;55.80;;;;;;5041837;27;116066;-85
2023/04/29 06:16:34;;;;;;;11.45;6.90;;;11.60;55.80;;;;;;5097124;27;114620;-86
2023/04/29 06:19:02;;;;;;;11.45;7.18;;;11.60;55.90;;;;;;5048529;27;115888;-86
2023/04/29 06:21:30;;;;;;;14.02;8.07;;;11.60;56.00;;;;;;5078321;27;114578;-84
2023/04/29 06:23:59;;;;;;;11.18;7.00;;;11.60;56.00;;;;;;5075575;27;115679;-85
2023/04/29 06:26:27;;;;;;;11.95;7.70;;;11.70;56.10;;;;;;5012469;27;115426;-85
2023/04/29 06:28:55;;;;;;;11.05;7.18;;;11.70;56.10;;;;;;5026992;27;118854;-85
2023/04/29 06:31:22;;;;;;;12.70;7.95;;;11.70;56.10;;;;;;5014373;27;117665;-84
2023/04/29 06:33:52;;;;;;;10.98;6.90;;;11.60;56.20;;;;;;5053493;27;117452;-85
2023/04/29 06:36:19;;;;;;;11.57;7.38;;;11.70;56.30;;;;;;5064870;27;114299;-86
2023/04/29 06:39:16;;;;;;;11.98;7.45;;;11.70;56.30;;;;;;5029898;27;115194;-87
2023/04/29 06:42:09;;;;;;;9.88;6.60;;;11.70;56.80;;;;;;5045788;27;115109;-85
2023/04/29 06:44:56;;;;;;;10.30;6.93;;;11.80;56.80;;;;;;5061522;27;114581;-86
2023/04/29 06:47:36;;;;;;;12.05;6.80;;;12.00;56.40;;;;;;5028029;27;114329;-84
2023/04/29 06:50:11;;;;;;;10.73;7.22;;;12.20;55.80;;;;;;4973525;27;114883;-85
2023/04/29 06:52:38;;;;;;;12.27;7.22;;;12.30;55.60;;;;;;4998434;28;114650;-85
2023/04/29 06:55:06;;;;;;;9.30;6.72;;;12.50;55.30;;;;;;4998881;28;114737;-87
2023/04/29 06:57:33;;;;;;;10.75;7.45;;;12.60;54.90;;;;;;5000171;28;114462;-83
2023/04/29 07:00:01;;;;;;;10.52;7.15;;;12.70;54.60;;;;;;4981984;28;115577;-85
2023/04/29 07:02:30;;;;;;;10.95;6.55;;;12.70;54.20;;;;;;4999008;28;115204;-87
2023/04/29 07:04:58;;;;;;;12.30;7.25;;;12.70;54.20;;;;;;4997118;28;114836;-86
2023/04/29 07:07:27;;;;;;;13.82;7.22;;;12.60;54.40;;;;;;4999404;28;114583;-86
2023/04/29 07:09:56;;;;;;;10.05;6.97;;;12.70;54.40;;;;;;4999095;28;117483;-86
2023/04/29 07:12:23;;;;;;;11.15;7.90;;;12.70;54.40;;;;;;4999532;28;115156;-83
2023/04/29 07:14:53;;;;;;;11.10;7.40;;;12.70;54.10;;;;;;5000465;28;114393;-85
2023/04/29 07:17:21;;;;;;;12.55;7.30;;;12.70;54.20;;;;;;5005149;28;115729;-84
2023/04/29 07:19:48;;;;;;;12.65;7.07;;;12.80;54.30;;;;;;4999619;28;114965;-85
2023/04/29 07:22:16;;;;;;;11.98;7.25;;;12.80;54.00;;;;;;4979250;28;114836;-83
2023/04/29 07:24:43;;;;;;;11.43;7.07;;;12.80;54.00;;;;;;5015887;28;114393;-83
2023/04/29 07:27:10;;;;;;;11.73;7.25;;;12.80;54.00;;;;;;5016262;28;117413;-85
2023/04/29 07:29:39;;;;;;;12.13;7.72;;;12.90;54.20;;;;;;4983181;28;114838;-86
2023/04/29 07:32:07;;;;;;;10.52;7.68;;;13.10;53.90;;;;;;4999630;28;114650;-86
2023/04/29 07:34:37;;;;;;;11.60;7.18;;;13.30;53.60;;;;;;5005593;28;114340;-86
2023/04/29 07:37:04;;;;;;;10.95;7.53;;;13.50;53.20;;;;;;5001284;28;117307;-87
2023/04/29 07:39:31;;;;;;;9.88;6.95;;;13.60;52.70;;;;;;4982141;28;117838;-87
2023/04/29 07:41:59;;;;;;;10.65;6.85;;;13.70;52.60;;;;;;4978755;28;114692;-87
2023/04/29 07:44:27;;;;;;;12.10;7.38;;;13.70;52.20;;;;;;4982555;28;114615;-89
2023/04/29 07:46:54;;;;;;;13.38;7.25;;;13.70;52.10;;;;;;4983844;28;114274;-86
2023/04/29 07:49:24;;;;;;;15.57;11.07;;;13.80;52.00;;;;;;4948247;28;119338;-87
2023/04/29 07:51:52;;;;;;;14.20;8.27;;;13.80;52.10;;;;;;4966250;28;117235;-87
2023/04/29 07:54:21;;;;;;;15.20;8.18;;;13.90;52.00;;;;;;4965375;28;114845;-86
2023/04/29 07:56:48;;;;;;;12.05;7.60;;;14.00;51.90;;;;;;4984022;28;114372;-87
2023/04/29 07:59:18;;;;;;;12.10;7.00;;;14.10;51.70;;;;;;4968529;28;117016;-87
2023/04/29 08:01:46;;;;;;;12.23;7.32;;;14.20;51.70;;;;;;4982625;28;118976;-86
2023/04/29 08:04:13;;;;;;;17.73;12.75;;;14.30;51.10;;;;;;4966133;28;114646;-87
2023/04/29 08:06:51;;;;;;;7.88;5.38;;;14.30;50.80;;;;;;4982889;28;114391;-86
2023/04/29 08:09:19;;;;;;;11.15;5.90;;;14.30;50.20;;;;;;4966403;28;117296;-85
2023/04/29 08:11:47;;;;;;;10.02;5.70;;;14.30;50.40;;;;;;4985424;28;114646;-85
2023/04/29 08:14:17;;;;;;;13.95;5.63;;;14.30;50.50;;;;;;4970222;28;114618;-86
2023/04/29 08:16:45;;;;;;;8.93;5.80;;;14.40;50.50;;;;;;4986424;28;114340;-86
2023/04/29 08:19:12;;;;;;;9.73;5.38;;;14.50;50.50;;;;;;5000934;28;116150;-85
2023/04/29 08:21:43;;;;;;;11.20;5.63;;;14.60;50.20;;;;;;5003062;28;114777;-85
2023/04/29 08:24:10;;;;;;;8.93;5.50;;;14.70;50.20;;;;;;4975941;28;118203;-86
2023/04/29 08:26:41;;;;;;;8.07;5.35;;;14.80;49.60;;;;;;4968577;28;114520;-86
2023/04/29 08:29:09;;;;;;;10.07;5.82;;;14.80;49.70;;;;;;4968588;28;114920;-87
2023/04/29 08:31:36;;;;;;;9.90;6.00;;;14.90;49.40;;;;;;5002197;28;119713;-87
2023/04/29 08:34:04;;;;;;;9.73;5.50;;;15.00;49.40;;;;;;4986162;28;114347;-87
2023/04/29 08:36:32;;;;;;;9.00;5.22;;;15.20;49.30;;;;;;4953114;28;114412;-88
2023/04/29 08:38:59;;;;;;;9.00;5.13;;;15.30;49.00;;;;;;4968406;28;116997;-87
2023/04/29 08:41:27;;;;;;;11.48;6.07;;;15.40;49.00;;;;;;5001685;28;114978;-86
2023/04/29 08:43:54;;;;;;;7.88;5.20;;;15.60;48.50;;;;;;5003025;28;114280;-86
2023/04/29 08:46:23;;;;;;;9.18;5.68;;;15.70;48.30;;;;;;4970261;28;114340;-85
2023/04/29 08:48:51;;;;;;;9.00;5.10;;;16.00;47.70;;;;;;4982503;28;115174;-87
2023/04/29 08:51:19;;;;;;;9.25;4.85;;;16.30;47.00;;;;;;5002405;28;114820;-87
2023/04/29 08:53:46;;;;;;;9.23;5.22;;;16.60;46.70;;;;;;4952282;28;114858;-87
2023/04/29 08:56:20;;;;;;;9.15;5.03;;;16.80;46.50;;;;;;4954162;28;114571;-88
2023/04/29 08:58:53;;;;;;;8.85;5.00;;;17.10;46.00;;;;;;4985779;28;117696;-87
2023/04/29 09:01:21;;;;;;;11.18;5.63;;;17.20;45.80;;;;;;4969772;28;116867;-87
2023/04/29 09:04:18;;;;;;;8.05;4.93;;;17.10;45.60;;;;;;4986489;28;115008;-88
2023/04/29 09:06:45;;;;;;;8.95;5.47;;;17.10;44.80;;;;;;5018727;28;114612;-85
2023/04/29 09:09:14;;;;;;;8.18;5.30;;;17.00;44.90;;;;;;4982016;28;117584;-87
2023/04/29 09:11:42;;;;;;;7.70;5.78;;;17.00;45.30;;;;;;4985389;28;114817;-86
2023/04/29 09:14:12;;;;;;;10.88;6.03;;;17.00;45.30;;;;;;5001476;28;114531;-86
2023/04/29 09:16:41;;;;;;;10.13;5.80;;;16.90;45.20;;;;;;4985801;28;116318;-88
2023/04/29 09:19:08;;;;;;;26.63;6.47;;;16.80;45.10;;;;;;5001144;28;115485;-87
2023/04/29 09:21:36;;;;;;;15.85;5.65;;;16.80;45.50;;;;;;4984975;28;115998;-87
2023/04/29 09:24:03;;;;;;;8.35;5.40;;;16.80;45.50;;;;;;5019052;28;114255;-87
2023/04/29 09:26:42;;;;;;;16.67;5.78;;;16.70;45.20;;;;;;5001409;28;114310;-87
2023/04/29 09:29:12;;;;;;;9.70;5.70;;;16.70;45.30;;;;;;5001157;28;115159;-87
2023/04/29 09:31:40;;;;;;;9.50;6.00;;;16.60;45.80;;;;;;4980413;28;119083;-87
2023/04/29 09:34:08;;;;;;;9.10;6.10;;;16.50;45.70;;;;;;4969410;28;114339;-85
2023/04/29 09:36:46;;;;;;;10.02;5.70;;;16.40;45.60;;;;;;4969136;28;114299;-86
2023/04/29 09:39:16;;;;;;;7.40;5.07;;;16.40;45.80;;;;;;4968197;28;117440;-87
2023/04/29 09:41:52;;;;;;;9.68;5.50;;;16.30;46.10;;;;;;4968140;28;117085;-87
2023/04/29 09:44:30;;;;;;;7.45;4.78;;;16.20;46.20;;;;;;5002390;28;114404;-85
2023/04/29 09:47:04;;;;;;;8.57;4.90;;;16.20;46.20;;;;;;4992410;28;114718;-89
2023/04/29 09:49:36;;;;;;;9.27;4.97;;;16.10;46.40;;;;;;4981442;28;117230;-85
2023/04/29 09:52:09;;;;;;;11.10;5.80;;;16.10;46.60;;;;;;4984779;28;115891;-86
2023/04/29 09:54:38;;;;;;;14.60;7.22;;;16.10;46.60;;;;;;5001593;28;114327;-87
2023/04/29 09:57:09;;;;;;;11.13;7.13;;;16.00;46.60;;;;;;4982428;28;114443;-87
2023/04/29 09:59:38;;;;;;;9.98;5.88;;;16.00;46.90;;;;;;4983880;28;115496;-87
2023/04/29 10:02:09;;;;;;;12.93;5.22;;;16.00;46.90;;;;;;4993114;28;115300;-87
2023/04/29 10:04:38;;;;;;;11.82;5.65;;;16.00;47.00;;;;;;5017851;28;114648;-89
2023/04/29 10:07:06;;;;;;;8.68;5.15;;;15.90;47.70;;;;;;4966178;28;114653;-87
2023/04/29 10:09:33;;;;;;;13.25;5.10;;;15.90;48.50;;;;;;4981968;28;114969;-88
2023/04/29 10:12:01;;;;;;;13.70;6.15;;;15.80;48.90;;;;;;4981907;28;114679;-87
2023/04/29 10:14:29;;;;;;;10.05;6.68;;;15.80;50.50;;;;;;4985313;28;114386;-87
2023/04/29 10:17:09;;;;;;;10.05;7.35;;;15.70;51.30;;;;;;4969222;28;119404;-86
2023/04/29 10:20:07;;;;;;;12.30;8.32;;;15.60;52.40;;;;;;4969449;28;115578;-88
2023/04/29 10:22:41;;;;;;;14.18;9.55;;;15.40;52.70;;;;;;5013377;28;114717;-89
2023/04/29 10:25:10;;;;;;;12.07;8.48;;;15.20;54.80;;;;;;5001667;28;114253;-88
2023/04/29 10:27:38;;;;;;;13.25;9.00;;;15.00;55.20;;;;;;4980577;28;114285;-89
2023/04/29 10:30:07;;;;;;;13.85;10.23;;;14.70;56.00;;;;;;4949518;28;117550;-87
2023/04/29 10:32:37;;;;;;;13.75;10.45;;;14.50;57.10;;;;;;4982102;28;115419;-88
2023/04/29 10:35:09;;;;;;;18.52;11.05;;;14.30;57.90;;;;;;4966069;28;114295;-88
2023/04/29 10:37:36;;;;;;;15.13;11.30;;;14.20;58.40;;;;;;4966646;28;114407;-87
2023/04/29 10:40:14;;;;;;;16.35;12.90;;;14.00;59.10;;;;;;4981922;28;118532;-88
2023/04/29 10:42:43;;;;;;;17.40;12.77;;;14.00;60.00;;;;;;4964472;28;117838;-88
2023/04/29 10:45:21;;;;;;;18.25;12.93;;;13.80;60.30;;;;;;4994033;28;117437;-88
2023/04/29 10:48:05;;;;;;;20.98;14.82;;;13.80;60.80;;;;;;4981091;28;114612;-88
2023/04/29 10:50:35;;;;;;;20.05;13.77;;;13.70;61.10;;;;;;5011801;28;118237;-87
2023/04/29 10:53:03;;;;;;;21.02;14.43;;;13.60;61.10;;;;;;4961000;28;117530;-87
2023/04/29 10:55:31;;;;;;;21.08;14.95;;;13.50;61.70;;;;;;4964315;28;114507;-87
2023/04/29 10:57:59;;;;;;;18.40;13.98;;;13.50;62.60;;;;;;4983137;28;114638;-86
2023/04/29 11:00:28;;;;;;;19.05;13.13;;;13.50;62.80;;;;;;4998145;28;114945;-87
2023/04/29 11:02:56;;;;;;;20.05;14.23;;;13.50;62.00;;;;;;4981878;28;114571;-86
2023/04/29 11:05:33;;;;;;;17.20;13.05;;;13.50;62.50;;;;;;4966108;28;114865;-86
2023/04/29 11:08:25;;;;;;;18.98;13.52;;;13.40;62.60;;;;;;4950020;28;114688;-87
2023/04/29 11:10:53;;;;;;;21.08;13.57;;;13.40;62.90;;;;;;4982778;28;118242;-87
2023/04/29 11:13:26;;;;;;;17.38;13.65;;;13.30;63.50;;;;;;4982354;28;114614;-87
2023/04/29 11:16:02;;;;;;;21.30;15.05;;;13.40;63.90;;;;;;4981861;28;116323;-87
2023/04/29 11:18:31;;;;;;;22.52;15.23;;;13.50;63.90;;;;;;4981344;28;114900;-89
2023/04/29 11:21:05;;;;;;;17.73;13.52;;;13.50;64.10;;;;;;4981095;28;115387;-90
2023/04/29 11:23:36;;;;;;;18.30;14.05;;;13.60;64.20;;;;;;4995108;28;117405;-87
2023/04/29 11:26:04;;;;;;;17.20;13.65;;;13.70;63.60;;;;;;4981951;28;114365;-87
2023/04/29 11:28:32;;;;;;;20.55;14.10;;;13.70;63.00;;;;;;4982710;28;114724;-87
2023/04/29 11:30:59;;;;;;;17.83;13.60;;;13.70;63.10;;;;;;4982239;28;115168;-88
2023/04/29 11:33:28;;;;;;;21.10;14.30;;;13.70;63.10;;;;;;4993380;28;115392;-89
2023/04/29 11:35:58;;;;;;;20.20;13.45;;;13.60;63.30;;;;;;4998469;28;115134;-87
2023/04/29 11:38:26;;;;;;;19.15;14.43;;;13.70;63.20;;;;;;4966979;28;114527;-87
2023/04/29 11:40:54;;;;;;;16.90;13.73;;;13.60;63.40;;;;;;4981381;28;115882;-86
2023/04/29 11:43:25;;;;;;;18.35;13.65;;;13.70;63.20;;;;;;4986855;28;114768;-87
2023/04/29 11:45:52;;;;;;;19.15;15.40;;;13.70;63.50;;;;;;4986332;28;114541;-89
2023/04/29 11:48:23;;;;;;;21.38;16.38;;;13.80;63.40;;;;;;4985507;28;114559;-87
2023/04/29 11:50:54;;;;;;;21.08;16.25;;;13.90;63.40;;;;;;4969423;28;117000;-87
2023/04/29 11:53:24;;;;;;;19.02;14.68;;;14.00;63.60;;;;;;4953328;28;116607;-89
2023/04/29 11:55:55;;;;;;;20.38;15.05;;;14.10;63.20;;;;;;4953675;28;116559;-88
2023/04/29 11:58:24;;;;;;;21.67;14.55;;;14.10;63.30;;;;;;4986855;28;114602;-86
2023/04/29 12:00:52;;;;;;;20.25;14.82;;;14.20;63.60;;;;;;4966085;28;117386;-87
2023/04/29 12:03:22;;;;;;;19.65;14.65;;;14.20;63.30;;;;;;4985237;28;115059;-88
2023/04/29 12:05:54;;;;;;;21.42;14.77;;;14.20;63.00;;;;;;4985984;28;114428;-89
2023/04/29 12:08:22;;;;;;;16.48;13.18;;;14.30;63.10;;;;;;4986761;28;114529;-88
2023/04/29 12:10:51;;;;;;;18.52;13.43;;;14.30;63.30;;;;;;4967564;28;117866;-88
2023/04/29 12:13:19;;;;;;;21.58;14.40;;;14.30;62.80;;;;;;4951246;28;116598;-87
2023/04/29 12:15:47;;;;;;;22.98;15.93;;;14.40;63.30;;;;;;4984186;28;114537;-88
2023/04/29 12:18:15;;;;;;;19.70;16.88;;;14.50;63.30;;;;;;4951359;28;116212;-87
2023/04/29 12:20:43;;;;;;;18.85;14.95;;;14.70;63.10;;;;;;4933231;28;118302;-87
2023/04/29 12:23:11;;;;;;;16.25;11.80;;;14.70;62.90;;;;;;4966941;28;114748;-87
2023/04/29 12:25:41;;;;;;;16.23;13.27;;;14.70;61.50;;;;;;5016368;28;114837;-87
2023/04/29 12:28:12;;;;;;;14.40;11.80;;;14.50;61.70;;;;;;4983670;28;114520;-87
2023/04/29 12:30:42;;;;;;;14.13;10.70;;;14.50;61.50;;;;;;4951143;28;117662;-89
2023/04/29 12:33:09;;;;;;;13.23;10.85;;;14.40;61.20;;;;;;4966374;28;117228;-87
2023/04/29 12:35:37;;;;;;;17.55;12.73;;;14.40;60.90;;;;;;4999862;28;114499;-89
2023/04/29 12:38:07;;;;;;;15.10;10.93;;;14.60;61.30;;;;;;4966263;28;114631;-86
2023/04/29 12:40:35;;;;;;;13.95;11.18;;;14.70;60.40;;;;;;4981699;28;117224;-86
2023/04/29 12:43:09;;;;;;;13.20;10.77;;;14.70;60.30;;;;;;4949690;28;114581;-85
2023/04/29 12:45:37;;;;;;;14.48;10.98;;;14.70;60.40;;;;;;4950897;28;114626;-86